createdAt,value
2018-07-31T00:00:23.417Z,96.60
2018-07-31T00:02:51.808Z,97.00
2018-07-31T00:05:20.214Z,97.10
2018-07-31T00:07:48.619Z,97.40
2018-07-31T00:10:17.024Z,97.50
2018-07-31T00:12:45.631Z,97.40
2018-07-31T00:15:14.052Z,97.20
2018-07-31T00:17:42.449Z,96.90
2018-07-31T00:20:11.066Z,96.80
2018-07-31T00:22:39.469Z,96.80
2018-07-31T00:25:07.871Z,96.80
2018-07-31T00:27:36.269Z,96.70
2018-07-31T00:30:07.201Z,96.50
2018-07-31T00:32:35.611Z,96.40
2018-07-31T00:35:04.170Z,96.40
2018-07-31T00:37:33.008Z,96.40
2018-07-31T00:40:01.406Z,96.50
2018-07-31T00:42:30.525Z,96.70
2018-07-31T00:44:58.960Z,97.00
2018-07-31T00:47:27.442Z,97.40
2018-07-31T00:49:55.839Z,97.70
2018-07-31T00:52:24.241Z,97.80
2018-07-31T00:54:53.570Z,97.70
2018-07-31T00:57:21.979Z,97.60
2018-07-31T00:59:50.524Z,97.40
2018-07-31T01:02:19.373Z,97.50
2018-07-31T01:04:47.779Z,97.50
2018-07-31T01:07:16.167Z,97.60
2018-07-31T01:09:44.557Z,97.70
2018-07-31T01:12:12.970Z,97.70
2018-07-31T01:14:41.359Z,97.70
2018-07-31T01:17:09.780Z,97.80
2018-07-31T01:19:38.193Z,97.70
2018-07-31T01:22:06.705Z,97.70
2018-07-31T01:24:35.094Z,97.80
2018-07-31T01:27:03.505Z,97.80
2018-07-31T01:29:31.913Z,97.70
2018-07-31T01:32:00.302Z,97.70
2018-07-31T01:34:28.715Z,97.80
2018-07-31T01:36:57.113Z,97.90
2018-07-31T01:39:25.506Z,97.70
2018-07-31T01:41:53.905Z,97.70
2018-07-31T01:44:22.319Z,97.80
2018-07-31T01:46:50.735Z,97.60
2018-07-31T01:49:19.138Z,97.50
2018-07-31T01:51:47.529Z,97.50
2018-07-31T01:54:16.078Z,97.40
2018-07-31T01:56:44.469Z,97.30
2018-07-31T01:59:12.884Z,97.30
2018-07-31T02:01:41.285Z,97.20
2018-07-31T02:04:09.873Z,97.20
2018-07-31T02:06:38.263Z,97.30
2018-07-31T02:09:08.319Z,97.30
2018-07-31T02:11:36.709Z,97.40
2018-07-31T02:14:05.105Z,97.30
2018-07-31T02:16:33.956Z,97.30
2018-07-31T02:19:02.820Z,97.30
2018-07-31T02:21:31.942Z,97.30
2018-07-31T02:24:00.529Z,97.30
2018-07-31T02:26:28.925Z,97.30
2018-07-31T02:28:57.756Z,97.20
2018-07-31T02:31:26.147Z,97.10
2018-07-31T02:33:54.506Z,97.20
2018-07-31T02:36:23.205Z,97.30
2018-07-31T02:38:51.610Z,97.10
2018-07-31T02:41:20.010Z,97.10
2018-07-31T02:43:48.780Z,97.00
2018-07-31T02:46:17.637Z,97.20
2018-07-31T02:48:46.706Z,97.60
2018-07-31T02:51:15.124Z,97.80
2018-07-31T02:53:43.518Z,97.90
2018-07-31T02:56:11.918Z,97.80
2018-07-31T02:58:40.305Z,97.80
2018-07-31T03:01:08.692Z,97.80
2018-07-31T03:03:37.095Z,97.90
2018-07-31T03:06:05.631Z,98.10
2018-07-31T03:08:34.026Z,98.20
2018-07-31T03:11:02.443Z,98.00
2018-07-31T03:13:30.851Z,98.20
2018-07-31T03:15:59.417Z,98.30
2018-07-31T03:18:27.833Z,98.30
2018-07-31T03:20:56.257Z,98.20
2018-07-31T03:23:25.012Z,98.20
2018-07-31T03:25:53.863Z,98.20
2018-07-31T03:28:22.334Z,98.00
2018-07-31T03:30:50.721Z,98.00
2018-07-31T03:33:19.119Z,97.90
2018-07-31T03:35:47.785Z,97.90
2018-07-31T03:38:16.174Z,98.10
2018-07-31T03:40:44.572Z,98.20
2018-07-31T03:43:12.967Z,98.10
2018-07-31T03:45:41.377Z,98.00
2018-07-31T03:48:10.213Z,97.90
2018-07-31T03:50:38.619Z,97.90
2018-07-31T03:53:07.289Z,98.00
2018-07-31T03:55:35.889Z,98.20
2018-07-31T03:58:04.303Z,98.40
2018-07-31T04:00:32.697Z,98.40
2018-07-31T04:03:01.098Z,98.40
2018-07-31T04:05:29.538Z,98.60
2018-07-31T04:07:57.907Z,98.60
2018-07-31T04:10:26.321Z,99.00
2018-07-31T04:12:54.711Z,99.10
2018-07-31T04:15:23.139Z,99.10
2018-07-31T04:17:55.174Z,98.90
2018-07-31T04:20:23.558Z,98.90
2018-07-31T04:22:53.168Z,98.90
2018-07-31T04:25:22.050Z,99.00
2018-07-31T04:27:50.456Z,98.90
2018-07-31T04:30:18.842Z,99.10
2018-07-31T04:32:47.602Z,99.00
2018-07-31T04:35:16.059Z,99.30
2018-07-31T04:37:44.462Z,99.40
2018-07-31T04:40:12.858Z,99.50
2018-07-31T04:42:41.336Z,99.50
2018-07-31T04:45:11.555Z,99.70
2018-07-31T04:47:41.045Z,99.70
2018-07-31T04:50:10.321Z,99.60
2018-07-31T04:52:39.513Z,99.50
2018-07-31T04:55:07.936Z,99.10
2018-07-31T04:57:36.480Z,98.90
2018-07-31T05:00:07.891Z,98.70
2018-07-31T05:02:37.583Z,98.50
2018-07-31T05:05:06.429Z,98.20
2018-07-31T05:07:38.966Z,97.90
2018-07-31T05:10:11.100Z,97.70
2018-07-31T05:12:40.210Z,97.40
2018-07-31T05:15:08.600Z,97.30
2018-07-31T05:17:38.633Z,97.30
2018-07-31T05:20:08.728Z,97.10
2018-07-31T05:22:37.710Z,97.20
2018-07-31T05:26:35.847Z,97.20
2018-07-31T05:29:04.241Z,97.10
2018-07-31T05:31:32.647Z,97.00
2018-07-31T05:34:01.615Z,97.10
2018-07-31T05:36:30.015Z,97.10
2018-07-31T05:38:58.407Z,97.00
2018-07-31T05:41:26.802Z,96.70
2018-07-31T05:43:55.217Z,96.80
2018-07-31T05:46:23.625Z,97.00
2018-07-31T05:48:52.036Z,97.10
2018-07-31T05:51:20.436Z,96.80
2018-07-31T05:53:49.101Z,96.50
2018-07-31T05:56:17.508Z,96.50
2018-07-31T05:58:45.982Z,96.60
2018-07-31T06:01:14.416Z,96.50
2018-07-31T06:03:42.826Z,96.50
2018-07-31T06:06:11.230Z,96.50
2018-07-31T06:08:39.638Z,96.60
2018-07-31T06:11:08.038Z,96.60
2018-07-31T06:13:36.434Z,96.60
2018-07-31T06:16:05.287Z,96.40
2018-07-31T06:18:33.696Z,96.20
2018-07-31T06:21:02.109Z,96.10
2018-07-31T06:23:30.876Z,95.80
2018-07-31T06:25:59.287Z,95.60
2018-07-31T06:28:27.689Z,95.30
2018-07-31T06:30:56.100Z,95.20
2018-07-31T06:33:24.535Z,95.00
2018-07-31T06:35:54.134Z,95.10
2018-07-31T06:38:22.537Z,94.90
2018-07-31T06:40:50.932Z,94.60
2018-07-31T06:43:19.318Z,94.60
2018-07-31T06:45:47.717Z,94.70
2018-07-31T06:48:16.117Z,94.70
2018-07-31T06:50:44.525Z,94.50
2018-07-31T06:53:12.913Z,94.60
2018-07-31T06:55:41.319Z,94.20
2018-07-31T06:58:09.721Z,94.10
2018-07-31T07:00:38.413Z,93.90
2018-07-31T07:03:07.499Z,93.60
2018-07-31T07:05:35.902Z,93.40
2018-07-31T07:08:04.351Z,92.70
2018-07-31T07:10:32.759Z,92.00
2018-07-31T07:13:01.155Z,92.30
2018-07-31T07:15:29.584Z,91.60
2018-07-31T07:17:57.962Z,90.80
2018-07-31T07:20:26.358Z,91.10
2018-07-31T07:22:54.786Z,90.10
2018-07-31T07:25:23.202Z,90.20
2018-07-31T07:27:51.781Z,90.20
2018-07-31T07:30:20.177Z,87.60
2018-07-31T07:32:48.578Z,85.80
2018-07-31T07:37:45.396Z,83.00
2018-07-31T07:40:13.839Z,83.90
2018-07-31T07:42:42.315Z,82.90
2018-07-31T07:45:10.922Z,82.10
2018-07-31T07:47:39.350Z,83.10
2018-07-31T07:50:07.862Z,83.00
2018-07-31T07:52:36.426Z,82.70
2018-07-31T07:55:04.871Z,82.30
2018-07-31T07:57:33.269Z,81.70
2018-07-31T08:00:01.695Z,81.30
2018-07-31T08:02:30.098Z,79.30
2018-07-31T08:04:58.515Z,79.10
2018-07-31T08:07:26.938Z,79.30
2018-07-31T08:09:55.349Z,79.10
2018-07-31T08:12:23.747Z,77.70
2018-07-31T08:14:52.183Z,75.60
2018-07-31T08:17:20.585Z,73.00
2018-07-31T08:19:49.025Z,74.10
2018-07-31T08:22:17.418Z,71.60
2018-07-31T08:24:46.326Z,70.60
2018-07-31T08:27:14.754Z,70.50
2018-07-31T08:29:43.154Z,72.30
2018-07-31T08:32:11.567Z,73.00
2018-07-31T08:34:39.953Z,73.80
2018-07-31T08:37:08.346Z,72.70
2018-07-31T08:39:36.750Z,70.10
2018-07-31T08:42:05.161Z,72.00
2018-07-31T08:44:33.865Z,70.10
2018-07-31T08:47:02.281Z,70.40
2018-07-31T08:49:30.713Z,68.30
2018-07-31T08:51:59.228Z,65.20
2018-07-31T08:54:27.625Z,67.00
2018-07-31T08:56:56.082Z,66.30
2018-07-31T08:59:24.492Z,66.70
2018-07-31T09:01:52.899Z,66.90
2018-07-31T09:04:21.310Z,67.10
2018-07-31T09:06:50.101Z,68.00
2018-07-31T09:09:18.497Z,67.40
2018-07-31T09:11:46.892Z,67.50
2018-07-31T09:14:15.285Z,67.10
2018-07-31T09:16:43.694Z,65.70
2018-07-31T09:19:12.105Z,64.00
2018-07-31T09:21:40.516Z,63.90
2018-07-31T09:24:08.959Z,63.10
2018-07-31T09:26:37.354Z,62.00
2018-07-31T09:29:05.755Z,63.40
2018-07-31T09:31:34.155Z,64.40
2018-07-31T09:34:02.554Z,62.40
2018-07-31T09:36:31.009Z,61.10
2018-07-31T09:38:59.369Z,61.70
2018-07-31T09:41:27.783Z,62.70
2018-07-31T09:43:56.172Z,61.10
2018-07-31T09:46:24.572Z,61.90
2018-07-31T09:48:53.014Z,61.50
2018-07-31T09:51:21.424Z,62.00
2018-07-31T09:53:49.814Z,61.10
2018-07-31T09:56:18.214Z,60.80
2018-07-31T09:58:46.616Z,63.40
2018-07-31T10:01:20.806Z,63.20
2018-07-31T10:03:50.349Z,62.80
2018-07-31T10:06:18.771Z,63.50
2018-07-31T10:08:48.326Z,62.60
2018-07-31T10:11:16.734Z,64.40
2018-07-31T10:13:45.611Z,61.60
2018-07-31T10:16:14.145Z,61.00
2018-07-31T10:18:43.518Z,60.80
2018-07-31T10:21:12.712Z,60.00
2018-07-31T10:23:41.645Z,59.90
2018-07-31T10:26:10.381Z,57.80
2018-07-31T10:28:39.113Z,57.10
2018-07-31T10:31:08.929Z,57.80
2018-07-31T10:33:39.289Z,58.00
2018-07-31T10:36:08.221Z,57.10
2018-07-31T10:38:36.851Z,57.60
2018-07-31T10:41:05.350Z,57.70
2018-07-31T10:43:33.814Z,56.10
2018-07-31T10:46:02.191Z,55.70
2018-07-31T10:48:30.693Z,55.40
2018-07-31T10:50:59.132Z,56.40
2018-07-31T10:53:27.529Z,55.80
2018-07-31T10:55:55.925Z,57.50
2018-07-31T10:58:24.376Z,57.40
2018-07-31T11:00:52.757Z,58.20
2018-07-31T11:03:21.230Z,58.50
2018-07-31T11:05:49.664Z,58.00
2018-07-31T11:08:18.068Z,56.50
2018-07-31T11:10:46.475Z,57.10
2018-07-31T11:13:15.434Z,56.50
2018-07-31T11:15:44.006Z,54.00
2018-07-31T11:18:12.393Z,53.70
2018-07-31T11:20:41.302Z,53.10
2018-07-31T11:23:09.728Z,54.10
2018-07-31T11:25:39.006Z,54.50
2018-07-31T11:28:07.398Z,54.50
2018-07-31T11:30:35.791Z,54.70
2018-07-31T11:33:04.222Z,54.40
2018-07-31T11:35:32.673Z,54.00
2018-07-31T11:38:01.225Z,54.10
2018-07-31T11:40:29.795Z,54.50
2018-07-31T11:42:58.233Z,55.20
2018-07-31T11:45:26.642Z,55.40
2018-07-31T11:47:55.080Z,54.90
2018-07-31T11:50:23.499Z,53.40
2018-07-31T11:52:51.913Z,53.70
2018-07-31T11:55:20.576Z,53.70
2018-07-31T11:57:48.999Z,53.60
2018-07-31T12:00:17.425Z,54.00
2018-07-31T12:02:45.851Z,53.50
2018-07-31T12:05:14.259Z,53.80
2018-07-31T12:07:43.060Z,52.80
2018-07-31T12:10:11.563Z,51.60
2018-07-31T12:12:39.976Z,51.80
2018-07-31T12:15:08.413Z,50.60
2018-07-31T12:17:36.838Z,51.60
2018-07-31T12:20:06.268Z,51.40
2018-07-31T12:22:34.693Z,52.00
2018-07-31T12:25:03.429Z,52.80
2018-07-31T12:27:31.959Z,53.30
2018-07-31T12:30:00.602Z,52.80
2018-07-31T12:32:29.074Z,51.00
2018-07-31T12:34:57.469Z,50.60
2018-07-31T12:37:26.019Z,51.10
2018-07-31T12:39:54.415Z,51.80
2018-07-31T12:42:22.811Z,52.10
2018-07-31T12:44:51.197Z,52.10
2018-07-31T12:47:19.591Z,52.30
2018-07-31T12:49:48.006Z,52.20
2018-07-31T12:52:16.412Z,52.40
2018-07-31T12:54:44.819Z,52.90
2018-07-31T12:57:13.242Z,52.00
2018-07-31T12:59:41.736Z,51.90
2018-07-31T13:02:10.180Z,52.10
2018-07-31T13:04:38.595Z,52.60
2018-07-31T13:07:07.444Z,53.40
2018-07-31T13:09:35.845Z,52.70
2018-07-31T13:12:05.239Z,51.80
2018-07-31T13:14:33.630Z,52.30
2018-07-31T13:17:02.065Z,53.30
2018-07-31T13:19:30.482Z,52.70
2018-07-31T13:21:58.885Z,51.70
2018-07-31T13:24:27.278Z,52.20
2018-07-31T13:26:55.812Z,52.80
2018-07-31T13:29:24.825Z,53.30
2018-07-31T13:31:53.652Z,53.70
2018-07-31T13:34:22.062Z,53.70
2018-07-31T13:36:50.466Z,52.60
2018-07-31T13:39:18.886Z,52.30
2018-07-31T13:41:47.715Z,52.30
2018-07-31T13:44:16.167Z,52.50
2018-07-31T13:46:44.646Z,53.10
2018-07-31T13:49:13.110Z,53.40
2018-07-31T13:51:41.863Z,54.10
2018-07-31T13:54:10.280Z,52.70
2018-07-31T13:56:38.741Z,52.70
2018-07-31T13:59:07.472Z,52.30
2018-07-31T14:01:35.945Z,50.70
2018-07-31T14:04:04.405Z,50.90
2018-07-31T14:06:32.843Z,51.20
2018-07-31T14:09:01.241Z,52.00
2018-07-31T14:11:29.638Z,51.50
2018-07-31T14:13:58.359Z,50.50
2018-07-31T14:16:26.780Z,49.80
2018-07-31T14:18:55.675Z,49.00
2018-07-31T14:21:24.152Z,49.30
2018-07-31T14:23:52.559Z,49.20
2018-07-31T14:26:20.960Z,48.20
2018-07-31T14:28:49.706Z,48.40
2018-07-31T14:31:18.227Z,48.00
2018-07-31T14:33:46.611Z,47.90
2018-07-31T14:36:15.026Z,48.80
2018-07-31T14:38:43.436Z,48.90
2018-07-31T14:41:11.831Z,48.00
2018-07-31T14:43:40.734Z,46.70
2018-07-31T14:46:09.174Z,46.00
2018-07-31T14:48:37.601Z,46.10
2018-07-31T14:51:06.058Z,45.10
2018-07-31T14:53:34.455Z,45.50
2018-07-31T14:56:02.860Z,46.70
2018-07-31T14:58:31.316Z,46.50
2018-07-31T15:00:59.712Z,47.30
2018-07-31T15:05:56.277Z,47.60
2018-07-31T15:08:24.666Z,48.60
2018-07-31T15:10:53.102Z,48.10
2018-07-31T15:13:21.505Z,47.60
2018-07-31T15:15:49.924Z,47.10
2018-07-31T15:18:18.314Z,46.90
2018-07-31T15:20:46.759Z,46.90
2018-07-31T15:23:15.158Z,44.90
2018-07-31T15:25:43.563Z,44.40
2018-07-31T15:28:11.984Z,43.10
2018-07-31T15:30:40.397Z,42.60
2018-07-31T15:33:08.795Z,43.00
2018-07-31T15:35:37.225Z,42.30
2018-07-31T15:38:05.810Z,41.60
2018-07-31T15:40:35.074Z,40.50
2018-07-31T15:43:03.476Z,40.70
2018-07-31T15:45:31.908Z,40.50
2018-07-31T15:48:00.565Z,40.60
2018-07-31T15:50:29.637Z,40.20
2018-07-31T15:52:58.643Z,39.80
2018-07-31T15:55:27.372Z,40.00
2018-07-31T15:57:55.773Z,40.20
2018-07-31T16:00:24.458Z,39.60
2018-07-31T16:02:52.864Z,39.40
2018-07-31T16:05:21.950Z,39.40
2018-07-31T16:07:50.403Z,39.50
2018-07-31T16:10:18.797Z,39.70
2018-07-31T16:12:47.190Z,38.80
2018-07-31T16:15:15.577Z,38.10
2018-07-31T16:17:43.974Z,38.60
2018-07-31T16:20:12.386Z,38.60
2018-07-31T16:22:41.465Z,38.50
2018-07-31T16:25:09.904Z,37.70
2018-07-31T16:27:38.794Z,37.70
2018-07-31T16:30:07.858Z,37.30
2018-07-31T16:32:36.260Z,36.90
2018-07-31T16:35:05.244Z,37.10
2018-07-31T16:37:33.638Z,37.30
2018-07-31T16:40:02.070Z,37.70
2018-07-31T16:42:30.475Z,36.90
2018-07-31T16:44:59.103Z,36.40
2018-07-31T16:47:27.816Z,36.00
2018-07-31T16:49:56.642Z,36.00
2018-07-31T16:52:25.054Z,36.50
2018-07-31T16:54:54.338Z,36.40
2018-07-31T16:57:22.764Z,36.40
2018-07-31T16:59:51.239Z,36.40
2018-07-31T17:02:20.088Z,36.70
2018-07-31T17:04:48.516Z,36.60
2018-07-31T17:07:17.207Z,36.70
2018-07-31T17:09:45.743Z,36.70
2018-07-31T17:12:14.222Z,36.80
2018-07-31T17:14:42.708Z,36.50
2018-07-31T17:17:11.205Z,36.30
2018-07-31T17:19:40.268Z,36.60
2018-07-31T17:22:08.753Z,36.80
2018-07-31T17:24:37.216Z,36.80
2018-07-31T17:27:05.595Z,36.80
2018-07-31T17:29:34.543Z,36.40
2018-07-31T17:32:02.973Z,36.20
2018-07-31T17:34:31.376Z,36.00
2018-07-31T17:36:59.772Z,36.00
2018-07-31T17:39:28.176Z,35.50
2018-07-31T17:41:56.591Z,35.40
2018-07-31T17:44:25.049Z,35.60
2018-07-31T17:46:53.471Z,35.20
2018-07-31T17:49:22.026Z,35.60
2018-07-31T17:51:50.567Z,35.90
2018-07-31T17:54:19.727Z,36.30
2018-07-31T17:56:48.561Z,36.50
2018-07-31T17:59:16.980Z,36.10
2018-07-31T18:01:45.708Z,36.40
2018-07-31T18:04:18.432Z,37.00
2018-07-31T18:06:47.079Z,37.50
2018-07-31T18:09:15.784Z,40.10
2018-07-31T18:11:45.114Z,42.00
2018-07-31T18:14:13.835Z,42.50
2018-07-31T18:16:42.196Z,43.00
2018-07-31T18:19:10.708Z,43.20
2018-07-31T18:21:39.690Z,43.20
2018-07-31T18:24:08.675Z,43.30
2018-07-31T18:26:37.812Z,43.80
2018-07-31T18:29:06.819Z,44.50
2018-07-31T18:31:35.307Z,45.10
2018-07-31T18:34:03.691Z,46.10
2018-07-31T18:36:32.260Z,46.60
2018-07-31T18:39:00.841Z,47.30
2018-07-31T18:41:29.235Z,47.90
2018-07-31T18:43:57.643Z,48.10
2018-07-31T18:46:26.095Z,48.20
2018-07-31T18:48:54.514Z,48.60
2018-07-31T18:51:22.920Z,49.60
2018-07-31T18:53:51.765Z,50.70
2018-07-31T18:56:20.158Z,51.90
2018-07-31T18:58:48.934Z,52.40
2018-07-31T19:01:17.495Z,52.60
2018-07-31T19:03:45.908Z,52.60
2018-07-31T19:06:14.350Z,52.80
2018-07-31T19:08:43.164Z,53.20
2018-07-31T19:11:11.564Z,53.80
2018-07-31T19:13:39.967Z,54.50
2018-07-31T19:16:08.388Z,54.90
2018-07-31T19:18:37.627Z,55.30
2018-07-31T19:21:06.031Z,56.10
2018-07-31T19:23:34.445Z,57.10
2018-07-31T19:26:02.913Z,58.30
2018-07-31T19:28:31.813Z,59.10
2018-07-31T19:31:00.205Z,60.30
2018-07-31T19:33:28.681Z,61.60
2018-07-31T19:38:26.035Z,60.90
2018-07-31T19:43:22.633Z,60.70
2018-07-31T19:45:51.061Z,60.50
2018-07-31T19:48:19.475Z,60.50
2018-07-31T19:50:47.869Z,60.60
2018-07-31T19:53:16.281Z,60.90
2018-07-31T19:55:44.692Z,61.40
2018-07-31T19:58:13.094Z,61.80
2018-07-31T20:00:41.496Z,61.90
2018-07-31T20:03:11.044Z,61.70
2018-07-31T20:05:39.460Z,61.70
2018-07-31T20:08:07.856Z,61.90
2018-07-31T20:10:36.495Z,62.60
2018-07-31T20:13:04.977Z,62.90
2018-07-31T20:15:33.447Z,63.10
2018-07-31T20:18:01.817Z,63.40
2018-07-31T20:20:30.840Z,64.10
2018-07-31T20:22:59.589Z,64.50
2018-07-31T20:25:28.844Z,64.80
2018-07-31T20:27:58.731Z,64.90
2018-07-31T20:30:38.323Z,64.90
2018-07-31T20:33:07.390Z,64.70
2018-07-31T20:35:37.430Z,65.60
2018-07-31T20:38:05.900Z,64.60
2018-07-31T20:40:39.656Z,65.00
2018-07-31T20:43:08.139Z,65.30
2018-07-31T20:45:36.962Z,66.10
2018-07-31T20:48:06.260Z,66.10
2018-07-31T20:50:36.943Z,65.90
2018-07-31T20:53:06.146Z,65.90
2018-07-31T20:58:03.567Z,68.00
2018-07-31T21:00:32.859Z,68.90
2018-07-31T21:03:01.251Z,69.50
2018-07-31T21:05:29.736Z,70.30
2018-07-31T21:07:58.228Z,70.90
2018-07-31T21:10:26.634Z,71.60
2018-07-31T21:12:55.035Z,71.90
2018-07-31T21:15:23.896Z,72.70
2018-07-31T21:17:52.654Z,73.50
2018-07-31T21:20:22.023Z,74.30
2018-07-31T21:22:50.417Z,74.80
2018-07-31T21:25:18.868Z,75.00
2018-07-31T21:27:47.499Z,75.40
2018-07-31T21:30:16.501Z,75.70
2018-07-31T21:32:44.905Z,75.70
2018-07-31T21:35:13.303Z,76.40
2018-07-31T21:37:41.800Z,76.80
2018-07-31T21:40:10.455Z,77.20
2018-07-31T21:42:38.854Z,77.10
2018-07-31T21:45:07.266Z,77.30
2018-07-31T21:47:35.673Z,77.50
2018-07-31T21:50:04.204Z,77.80
2018-07-31T21:52:35.815Z,77.90
2018-07-31T21:55:10.620Z,78.10
2018-07-31T21:57:39.001Z,78.50
2018-07-31T22:00:10.052Z,78.90
2018-07-31T22:02:39.089Z,79.20
2018-07-31T22:05:08.038Z,79.40
2018-07-31T22:07:36.457Z,79.10
2018-07-31T22:10:05.464Z,79.10
2018-07-31T22:12:33.884Z,79.50
2018-07-31T22:15:02.296Z,79.70
2018-07-31T22:17:30.703Z,79.90
2018-07-31T22:19:59.090Z,79.90
2018-07-31T22:22:28.298Z,80.10
2018-07-31T22:24:57.380Z,80.10
2018-07-31T22:27:25.709Z,80.40
2018-07-31T22:29:54.114Z,80.80
2018-07-31T22:32:22.619Z,81.00
2018-07-31T22:34:51.006Z,81.10
2018-07-31T22:37:19.416Z,81.40
2018-07-31T22:39:48.171Z,81.80
2018-07-31T22:42:16.583Z,82.10
2018-07-31T22:44:44.980Z,82.30
2018-07-31T22:47:13.372Z,82.50
2018-07-31T22:49:41.780Z,82.20
2018-07-31T22:52:10.742Z,83.10
2018-07-31T22:54:39.142Z,83.40
2018-07-31T22:57:07.543Z,83.40
2018-07-31T22:59:36.045Z,83.50
2018-07-31T23:02:04.461Z,83.50
2018-07-31T23:04:33.648Z,83.70
2018-07-31T23:07:02.050Z,83.90
2018-07-31T23:09:30.434Z,83.90
2018-07-31T23:11:58.946Z,84.30
2018-07-31T23:14:27.339Z,84.90
2018-07-31T23:16:56.055Z,84.90
2018-07-31T23:19:24.448Z,84.80
2018-07-31T23:21:53.019Z,84.70
2018-07-31T23:24:21.431Z,84.70
2018-07-31T23:26:49.844Z,85.20
2018-07-31T23:29:18.243Z,85.50
2018-07-31T23:31:46.660Z,85.80
2018-07-31T23:34:15.083Z,85.70
2018-07-31T23:36:43.465Z,85.60
2018-07-31T23:39:12.901Z,85.40
2018-07-31T23:41:41.309Z,85.90
2018-07-31T23:44:10.164Z,86.30
2018-07-31T23:46:39.871Z,86.40
2018-07-31T23:49:08.264Z,87.20
2018-07-31T23:51:36.686Z,87.50
2018-07-31T23:54:05.099Z,87.80
2018-07-31T23:56:33.503Z,87.60
2018-07-31T23:59:01.903Z,87.90
